createdAt,value
2019-06-10T00:02:03.741Z,1.60
2019-06-10T00:04:50.800Z,1.40
2019-06-10T00:07:37.458Z,1.32
2019-06-10T00:10:25.484Z,1.57
2019-06-10T00:13:12.968Z,1.70
2019-06-10T00:16:02.694Z,1.90
2019-06-10T00:18:50.852Z,1.37
2019-06-10T00:21:36.505Z,1.50
2019-06-10T00:24:24.189Z,1.40
2019-06-10T00:27:12.104Z,1.45
2019-06-10T00:30:02.857Z,1.40
2019-06-10T00:32:47.524Z,1.17
2019-06-10T00:35:34.807Z,1.50
2019-06-10T00:38:22.353Z,1.20
2019-06-10T00:41:13.684Z,1.40
2019-06-10T00:44:00.850Z,1.30
2019-06-10T00:46:46.128Z,1.40
2019-06-10T00:49:33.688Z,1.67
2019-06-10T00:52:21.921Z,1.10
2019-06-10T00:55:10.004Z,1.45
2019-06-10T00:57:56.513Z,1.47
2019-06-10T01:00:44.810Z,1.40
2019-06-10T01:03:32.782Z,1.40
2019-06-10T01:06:21.445Z,1.40
2019-06-10T01:09:11.453Z,1.50
2019-06-10T01:11:56.786Z,1.52
2019-06-10T01:14:44.314Z,1.90
2019-06-10T01:17:32.040Z,1.37
2019-06-10T01:20:21.044Z,1.50
2019-06-10T01:23:07.329Z,1.50
2019-06-10T01:25:55.434Z,1.47
2019-06-10T01:28:42.881Z,1.50
2019-06-10T01:31:31.703Z,1.62
2019-06-10T01:34:18.422Z,1.60
2019-06-10T01:37:06.776Z,1.30
2019-06-10T01:39:53.896Z,1.20
2019-06-10T01:42:41.438Z,1.30
2019-06-10T01:45:31.109Z,1.72
2019-06-10T01:48:16.700Z,1.20
2019-06-10T01:51:03.620Z,1.32
2019-06-10T01:53:51.766Z,1.37
2019-06-10T01:56:40.898Z,1.60
2019-06-10T01:59:26.644Z,1.30
2019-06-10T02:02:17.749Z,1.30
2019-06-10T02:05:04.636Z,1.50
2019-06-10T02:07:52.604Z,1.50
2019-06-10T02:10:41.504Z,1.70
2019-06-10T02:13:33.459Z,1.55
2019-06-10T02:16:23.394Z,1.65
2019-06-10T02:19:07.391Z,1.50
2019-06-10T02:21:54.928Z,1.65
2019-06-10T02:24:42.850Z,1.40
2019-06-10T02:27:31.444Z,1.43
2019-06-10T02:30:35.041Z,1.52
2019-06-10T02:33:06.418Z,1.40
2019-06-10T02:35:54.129Z,1.60
2019-06-10T02:38:44.490Z,1.70
2019-06-10T02:41:35.381Z,1.70
2019-06-10T02:44:21.788Z,1.45
2019-06-10T02:47:04.420Z,1.50
2019-06-10T02:49:59.092Z,1.40
2019-06-10T02:52:39.693Z,1.70
2019-06-10T02:55:30.905Z,1.40
2019-06-10T02:58:15.676Z,1.80
2019-06-10T03:01:04.200Z,1.80
2019-06-10T03:03:53.923Z,1.70
2019-06-10T03:06:40.146Z,1.82
2019-06-10T03:09:29.388Z,1.67
2019-06-10T03:12:13.752Z,1.90
2019-06-10T03:15:02.105Z,1.70
2019-06-10T03:17:48.846Z,1.80
2019-06-10T03:20:36.170Z,1.98
2019-06-10T03:23:26.433Z,1.98
2019-06-10T03:26:12.392Z,1.80
2019-06-10T03:28:58.435Z,1.87
2019-06-10T03:31:48.059Z,1.80
2019-06-10T03:34:41.232Z,1.70
2019-06-10T03:37:23.292Z,1.60
2019-06-10T03:40:08.538Z,1.90
2019-06-10T03:42:55.753Z,1.80
2019-06-10T03:45:43.123Z,1.70
2019-06-10T03:48:32.789Z,1.70
2019-06-10T03:51:19.218Z,1.73
2019-06-10T03:54:05.909Z,1.60
2019-06-10T03:56:53.438Z,1.62
2019-06-10T03:59:42.229Z,1.80
2019-06-10T04:02:28.702Z,1.80
2019-06-10T04:05:17.376Z,1.70
2019-06-10T04:08:03.246Z,1.80
2019-06-10T04:10:52.102Z,1.97
2019-06-10T04:13:37.916Z,1.98
2019-06-10T04:16:26.680Z,2.10
2019-06-10T04:19:13.089Z,2.10
2019-06-10T04:21:59.823Z,1.80
2019-06-10T04:24:47.133Z,1.60
2019-06-10T04:27:34.506Z,1.80
2019-06-10T04:30:24.258Z,1.98
2019-06-10T04:33:10.095Z,2.00
2019-06-10T04:35:57.501Z,1.90
2019-06-10T04:38:44.995Z,2.00
2019-06-10T04:41:32.983Z,2.25
2019-06-10T04:44:22.886Z,2.08
2019-06-10T04:47:07.803Z,1.92
2019-06-10T04:49:55.176Z,2.08
2019-06-10T04:52:43.081Z,1.70
2019-06-10T04:55:32.486Z,1.90
2019-06-10T04:58:19.397Z,2.27
2019-06-10T05:01:04.944Z,2.22
2019-06-10T05:03:53.023Z,2.00
2019-06-10T05:06:42.188Z,2.05
2019-06-10T05:09:29.434Z,2.37
2019-06-10T05:12:16.594Z,2.22
2019-06-10T05:15:04.110Z,2.30
2019-06-10T05:17:52.686Z,2.77
2019-06-10T05:20:52.075Z,2.20
2019-06-10T05:23:26.465Z,2.62
2019-06-10T05:26:13.655Z,2.42
2019-06-10T05:29:03.156Z,2.40
2019-06-10T05:31:52.161Z,1.90
2019-06-10T05:34:37.270Z,2.47
2019-06-10T05:37:26.333Z,2.10
2019-06-10T05:40:12.893Z,2.50
2019-06-10T05:43:02.422Z,2.30
2019-06-10T05:45:48.081Z,2.25
2019-06-10T05:48:35.653Z,2.20
2019-06-10T05:51:25.811Z,2.08
2019-06-10T05:54:13.062Z,2.10
2019-06-10T05:57:02.560Z,2.30
2019-06-10T05:59:48.553Z,2.30
2019-06-10T06:02:35.753Z,2.40
2019-06-10T06:05:23.901Z,2.40
2019-06-10T06:08:12.583Z,2.42
2019-06-10T06:10:58.113Z,2.40
2019-06-10T06:13:45.321Z,2.60
2019-06-10T06:16:36.303Z,2.30
2019-06-10T06:19:23.687Z,2.37
2019-06-10T06:22:12.967Z,2.37
2019-06-10T06:24:58.965Z,2.37
2019-06-10T06:27:46.372Z,2.40
2019-06-10T06:30:36.133Z,2.42
2019-06-10T06:33:22.171Z,2.08
2019-06-10T06:36:12.326Z,2.72
2019-06-10T06:38:57.483Z,2.70
2019-06-10T06:41:45.364Z,2.47
2019-06-10T06:44:35.897Z,2.50
2019-06-10T06:47:22.405Z,2.87
2019-06-10T06:50:07.746Z,2.60
2019-06-10T06:53:23.391Z,2.40
2019-06-10T06:55:43.604Z,2.30
2019-06-10T06:58:33.462Z,2.55
2019-06-10T07:01:22.591Z,2.40
2019-06-10T07:04:07.451Z,2.35
2019-06-10T07:06:55.658Z,2.70
2019-06-10T07:09:43.358Z,2.50
2019-06-10T07:12:33.364Z,2.60
2019-06-10T07:15:18.941Z,2.70
2019-06-10T07:18:06.387Z,2.65
2019-06-10T07:20:54.166Z,2.70
2019-06-10T07:23:45.560Z,2.90
2019-06-10T07:26:34.127Z,2.62
2019-06-10T07:29:19.322Z,2.35
2019-06-10T07:32:06.735Z,2.52
2019-06-10T07:34:54.485Z,2.65
2019-06-10T07:37:44.520Z,2.90
2019-06-10T07:40:29.523Z,3.05
2019-06-10T07:43:16.920Z,3.17
2019-06-10T07:46:04.822Z,4.85
2019-06-10T07:48:56.371Z,4.00
2019-06-10T07:51:39.807Z,3.08
2019-06-10T07:54:27.844Z,3.00
2019-06-10T07:57:15.048Z,4.20
2019-06-10T08:00:03.154Z,3.33
2019-06-10T08:02:49.749Z,3.10
2019-06-10T08:05:37.753Z,2.70
2019-06-10T08:08:24.758Z,2.62
2019-06-10T08:11:13.640Z,3.02
2019-06-10T08:14:04.361Z,2.90
2019-06-10T08:16:48.659Z,3.40
2019-06-10T08:19:40.038Z,3.33
2019-06-10T08:22:34.238Z,3.10
2019-06-10T08:25:12.442Z,2.72
2019-06-10T08:27:58.684Z,3.20
2019-06-10T08:30:46.223Z,2.70
2019-06-10T08:33:33.785Z,2.90
2019-06-10T08:36:22.390Z,3.02
2019-06-10T08:39:11.935Z,3.67
2019-06-10T08:41:55.920Z,3.72
2019-06-10T08:44:44.025Z,2.75
2019-06-10T08:47:32.655Z,3.15
2019-06-10T08:50:22.243Z,2.72
2019-06-10T08:53:14.405Z,2.92
2019-06-10T08:55:54.692Z,2.98
2019-06-10T08:58:47.386Z,2.98
2019-06-10T09:01:29.767Z,2.87
2019-06-10T09:04:17.279Z,4.62
2019-06-10T09:07:05.298Z,4.30
2019-06-10T09:09:54.013Z,3.62
2019-06-10T09:12:41.262Z,3.17
2019-06-10T09:15:27.654Z,3.90
2019-06-10T09:18:19.702Z,4.03
2019-06-10T09:21:03.274Z,3.40
2019-06-10T09:23:58.554Z,3.37
2019-06-10T09:26:39.925Z,3.20
2019-06-10T09:29:26.030Z,2.87
2019-06-10T09:32:13.488Z,3.35
2019-06-10T09:35:03.454Z,2.70
2019-06-10T09:37:51.588Z,2.95
2019-06-10T09:40:59.002Z,3.20
2019-06-10T09:43:37.934Z,3.25
2019-06-10T09:46:25.348Z,2.95
2019-06-10T09:49:13.505Z,3.10
2019-06-10T09:52:03.470Z,2.72
2019-06-10T09:54:53.606Z,3.12
2019-06-10T09:57:36.518Z,3.40
2019-06-10T10:00:37.895Z,3.20
2019-06-10T10:03:25.103Z,2.72
2019-06-10T10:06:15.807Z,2.85
2019-06-10T10:09:03.459Z,2.65
2019-06-10T10:11:50.614Z,2.52
2019-06-10T10:14:36.957Z,3.40
2019-06-10T10:17:24.385Z,3.02
2019-06-10T10:20:12.331Z,3.08
2019-06-10T10:22:59.179Z,2.67
2019-06-10T10:25:48.243Z,3.05
2019-06-10T10:28:34.748Z,2.90
2019-06-10T10:31:23.365Z,3.00
2019-06-10T10:34:09.930Z,2.60
2019-06-10T10:36:57.518Z,3.00
2019-06-10T10:39:45.215Z,2.80
2019-06-10T10:42:42.744Z,2.95
2019-06-10T10:45:22.533Z,2.72
2019-06-10T10:48:08.141Z,5.05
2019-06-10T10:50:56.208Z,4.40
2019-06-10T10:53:46.536Z,2.92
2019-06-10T10:56:33.394Z,2.70
2019-06-10T10:59:19.009Z,3.58
2019-06-10T11:02:06.337Z,2.72
2019-06-10T11:04:56.831Z,3.00
2019-06-10T11:07:42.277Z,3.05
2019-06-10T11:10:28.879Z,3.02
2019-06-10T11:13:16.425Z,3.15
2019-06-10T11:16:03.708Z,2.85
2019-06-10T11:18:53.790Z,4.80
2019-06-10T11:21:38.852Z,3.08
2019-06-10T11:24:36.453Z,3.27
2019-06-10T11:27:14.407Z,2.75
2019-06-10T11:30:02.554Z,2.33
2019-06-10T11:32:53.535Z,2.72
2019-06-10T11:35:38.206Z,2.90
2019-06-10T11:38:25.579Z,2.80
2019-06-10T11:41:13.754Z,2.75
2019-06-10T11:44:00.869Z,4.92
2019-06-10T11:46:48.623Z,3.50
2019-06-10T11:49:36.296Z,3.08
2019-06-10T11:52:23.618Z,2.60
2019-06-10T11:55:18.292Z,2.77
2019-06-10T11:57:59.362Z,2.60
2019-06-10T12:00:46.749Z,2.80
2019-06-10T12:03:34.316Z,2.90
2019-06-10T12:06:22.840Z,2.52
2019-06-10T12:09:09.374Z,3.30
2019-06-10T12:12:01.283Z,2.80
2019-06-10T12:14:44.237Z,2.58
2019-06-10T12:17:45.595Z,2.60
2019-06-10T12:20:19.291Z,2.62
2019-06-10T12:23:06.619Z,2.50
2019-06-10T12:25:56.708Z,2.80
2019-06-10T12:28:43.236Z,2.98
2019-06-10T12:31:30.324Z,2.65
2019-06-10T12:34:17.774Z,2.37
2019-06-10T12:37:11.369Z,2.70
2019-06-10T12:39:56.569Z,2.58
2019-06-10T12:42:41.573Z,2.80
2019-06-10T12:45:28.288Z,2.70
2019-06-10T12:48:15.673Z,2.65
2019-06-10T12:51:08.811Z,2.65
2019-06-10T12:53:51.464Z,2.62
2019-06-10T12:56:38.782Z,2.95
2019-06-10T12:59:27.086Z,2.85
2019-06-10T13:02:22.718Z,4.75
2019-06-10T13:05:05.679Z,3.47
2019-06-10T13:07:48.503Z,2.80
2019-06-10T13:10:37.851Z,2.70
2019-06-10T13:13:25.689Z,2.98
2019-06-10T13:16:14.170Z,2.62
2019-06-10T13:19:03.275Z,2.52
2019-06-10T13:21:48.488Z,2.58
2019-06-10T13:24:36.063Z,2.60
2019-06-10T13:27:23.335Z,2.72
2019-06-10T13:30:10.703Z,3.05
2019-06-10T13:33:00.095Z,3.25
2019-06-10T13:35:46.594Z,3.00
2019-06-10T13:38:33.979Z,3.17
2019-06-10T13:41:22.772Z,2.85
2019-06-10T13:44:08.764Z,2.87
2019-06-10T13:46:56.709Z,2.83
2019-06-10T13:49:44.074Z,2.87
2019-06-10T13:52:32.139Z,3.10
2019-06-10T13:55:18.943Z,2.60
2019-06-10T13:58:09.610Z,2.67
2019-06-10T14:00:54.160Z,3.00
2019-06-10T14:03:43.240Z,2.92
2019-06-10T14:06:42.713Z,3.27
2019-06-10T14:09:16.924Z,3.00
2019-06-10T14:12:04.101Z,2.83
2019-06-10T14:14:53.295Z,6.28
2019-06-10T14:17:38.686Z,6.35
2019-06-10T14:20:26.286Z,3.47
2019-06-10T14:23:17.440Z,2.80
2019-06-10T14:26:04.181Z,2.60
2019-06-10T14:28:48.781Z,3.05
2019-06-10T14:31:43.589Z,2.70
2019-06-10T14:34:23.966Z,3.08
2019-06-10T14:37:12.798Z,3.08
2019-06-10T14:39:58.787Z,3.05
2019-06-10T14:42:46.757Z,3.10
2019-06-10T14:45:34.208Z,3.25
2019-06-10T14:48:23.484Z,3.25
2019-06-10T14:51:12.410Z,2.98
2019-06-10T14:54:03.127Z,3.00
2019-06-10T14:56:56.369Z,3.00
2019-06-10T14:59:37.650Z,2.65
2019-06-10T15:02:25.583Z,2.70
2019-06-10T15:05:15.575Z,2.90
2019-06-10T15:08:03.168Z,3.10
2019-06-10T15:10:48.239Z,2.87
2019-06-10T15:13:36.256Z,2.70
2019-06-10T15:16:24.351Z,3.00
2019-06-10T15:19:19.711Z,2.67
2019-06-10T15:21:59.747Z,3.95
2019-06-10T15:24:47.300Z,5.12
2019-06-10T15:27:34.736Z,3.50
2019-06-10T15:30:27.135Z,3.10
2019-06-10T15:33:11.137Z,2.72
2019-06-10T15:35:57.460Z,2.72
2019-06-10T15:38:45.535Z,2.98
2019-06-10T15:41:33.010Z,2.90
2019-06-10T15:44:41.746Z,3.22
2019-06-10T15:47:07.811Z,3.02
2019-06-10T15:49:55.228Z,3.20
2019-06-10T15:52:43.139Z,2.70
2019-06-10T15:55:55.515Z,2.75
2019-06-10T15:58:19.866Z,2.90
2019-06-10T16:01:06.197Z,3.00
2019-06-10T16:03:53.593Z,3.25
2019-06-10T16:06:42.466Z,2.95
2019-06-10T16:09:29.378Z,2.67
2019-06-10T16:12:18.295Z,2.80
2019-06-10T16:15:04.562Z,2.80
2019-06-10T16:17:53.552Z,2.87
2019-06-10T16:20:42.746Z,15.68
2019-06-10T16:23:27.442Z,4.33
2019-06-10T16:26:16.136Z,3.10
2019-06-10T16:29:02.843Z,2.80
2019-06-10T16:31:52.752Z,2.90
2019-06-10T16:34:37.797Z,3.65
2019-06-10T16:37:25.789Z,3.55
2019-06-10T16:40:12.550Z,3.47
2019-06-10T16:43:00.563Z,3.92
2019-06-10T16:45:47.806Z,3.47
2019-06-10T16:48:35.270Z,3.80
2019-06-10T16:51:23.719Z,3.60
2019-06-10T16:54:10.118Z,4.20
2019-06-10T16:56:57.408Z,3.62
2019-06-10T16:59:44.847Z,3.70
2019-06-10T17:02:33.132Z,4.40
2019-06-10T17:05:21.270Z,3.72
2019-06-10T17:08:08.420Z,3.98
2019-06-10T17:10:56.610Z,3.80
2019-06-10T17:13:44.213Z,4.00
2019-06-10T17:16:32.158Z,3.98
2019-06-10T17:19:21.251Z,4.28
2019-06-10T17:22:07.710Z,3.90
2019-06-10T17:24:55.046Z,4.30
2019-06-10T17:27:43.015Z,7.78
2019-06-10T17:30:30.923Z,4.97
2019-06-10T17:33:20.415Z,4.25
2019-06-10T17:36:06.159Z,4.20
2019-06-10T17:38:54.132Z,3.90
2019-06-10T17:41:42.679Z,4.05
2019-06-10T17:44:30.725Z,3.77
2019-06-10T17:47:16.502Z,3.80
2019-06-10T17:50:05.503Z,4.00
2019-06-10T17:52:53.640Z,3.40
2019-06-10T17:55:40.863Z,3.85
2019-06-10T17:58:40.810Z,3.60
2019-06-10T18:01:15.935Z,3.92
2019-06-10T18:04:04.035Z,3.72
2019-06-10T18:06:52.885Z,3.87
2019-06-10T18:09:39.419Z,3.70
2019-06-10T18:12:27.913Z,3.77
2019-06-10T18:15:14.578Z,3.83
2019-06-10T18:18:03.504Z,5.22
2019-06-10T18:20:53.309Z,4.78
2019-06-10T18:23:37.471Z,4.85
2019-06-10T18:26:25.300Z,4.25
2019-06-10T18:29:12.978Z,4.20
2019-06-10T18:32:03.261Z,3.90
2019-06-10T18:34:48.645Z,4.15
2019-06-10T18:37:38.758Z,4.28
2019-06-10T18:40:24.153Z,4.30
2019-06-10T18:43:12.169Z,4.33
2019-06-10T18:45:59.583Z,3.80
2019-06-10T18:48:46.979Z,3.67
2019-06-10T18:51:37.016Z,4.03
2019-06-10T18:54:22.693Z,3.92
2019-06-10T18:57:09.855Z,4.25
2019-06-10T18:59:57.949Z,3.62
2019-06-10T19:02:45.721Z,3.77
2019-06-10T19:05:34.653Z,3.87
2019-06-10T19:08:22.342Z,3.52
2019-06-10T19:11:09.132Z,4.20
2019-06-10T19:13:59.844Z,4.00
2019-06-10T19:16:44.091Z,3.47
2019-06-10T19:19:31.843Z,3.37
2019-06-10T19:22:19.265Z,4.10
2019-06-10T19:25:07.277Z,3.67
2019-06-10T19:27:55.208Z,3.70
2019-06-10T19:30:44.863Z,4.10
2019-06-10T19:33:32.465Z,4.08
2019-06-10T19:36:17.899Z,3.70
2019-06-10T19:39:06.931Z,3.80
2019-06-10T19:41:54.502Z,3.80
2019-06-10T19:44:45.567Z,3.83
2019-06-10T19:47:32.586Z,3.87
2019-06-10T19:50:18.085Z,4.00
2019-06-10T19:53:05.522Z,3.45
2019-06-10T19:55:53.434Z,3.45
2019-06-10T19:58:43.424Z,3.50
2019-06-10T20:01:28.449Z,3.72
2019-06-10T20:04:18.178Z,3.42
2019-06-10T20:07:03.786Z,3.75
2019-06-10T20:09:52.234Z,3.70
2019-06-10T20:12:38.716Z,3.12
2019-06-10T20:15:26.125Z,3.20
2019-06-10T20:18:13.653Z,5.70
2019-06-10T20:21:02.692Z,3.90
2019-06-10T20:23:49.507Z,3.90
2019-06-10T20:26:36.798Z,3.33
2019-06-10T20:29:24.599Z,3.80
2019-06-10T20:32:12.209Z,3.22
2019-06-10T20:34:59.642Z,3.50
2019-06-10T20:37:47.371Z,2.98
2019-06-10T20:40:35.454Z,3.42
2019-06-10T20:43:22.649Z,2.98
2019-06-10T20:46:09.960Z,2.83
2019-06-10T20:48:57.240Z,2.90
2019-06-10T20:51:56.947Z,2.98
2019-06-10T20:54:32.396Z,3.00
2019-06-10T20:57:19.598Z,3.02
2019-06-10T21:00:19.779Z,3.12
2019-06-10T21:02:55.078Z,2.75
2019-06-10T21:05:43.702Z,2.87
2019-06-10T21:08:33.251Z,3.10
2019-06-10T21:11:18.773Z,2.85
2019-06-10T21:14:06.112Z,3.17
2019-06-10T21:16:53.753Z,3.02
2019-06-10T21:19:44.564Z,3.17
2019-06-10T21:22:29.003Z,3.22
2019-06-10T21:25:16.978Z,2.90
2019-06-10T21:28:04.346Z,2.98
2019-06-10T21:30:54.932Z,3.02
2019-06-10T21:33:44.382Z,2.80
2019-06-10T21:36:29.002Z,3.10
2019-06-10T21:39:16.401Z,3.27
2019-06-10T21:42:03.647Z,3.80
2019-06-10T21:44:52.099Z,3.72
2019-06-10T21:47:38.396Z,2.83
2019-06-10T21:50:26.056Z,3.02
2019-06-10T21:53:13.790Z,2.80
2019-06-10T21:56:01.182Z,3.50
2019-06-10T21:58:48.885Z,3.00
2019-06-10T22:01:36.302Z,3.25
2019-06-10T22:04:23.675Z,3.17
2019-06-10T22:07:11.720Z,3.70
2019-06-10T22:10:02.350Z,3.25
2019-06-10T22:12:48.032Z,3.25
2019-06-10T22:15:35.185Z,3.25
2019-06-10T22:18:23.022Z,2.98
2019-06-10T22:21:10.204Z,3.17
2019-06-10T22:23:57.726Z,3.22
2019-06-10T22:26:45.144Z,3.40
2019-06-10T22:29:32.569Z,3.37
2019-06-10T22:32:20.201Z,3.70
2019-06-10T22:35:08.356Z,3.15
2019-06-10T22:37:56.670Z,3.20
2019-06-10T22:40:44.062Z,3.40
2019-06-10T22:43:32.187Z,3.95
2019-06-10T22:46:18.689Z,3.10
2019-06-10T22:49:06.120Z,2.72
2019-06-10T22:51:56.623Z,3.12
2019-06-10T22:54:43.069Z,2.95
2019-06-10T22:57:28.650Z,2.55
2019-06-10T23:00:16.060Z,2.98
2019-06-10T23:03:04.052Z,3.42
2019-06-10T23:05:52.356Z,3.25
2019-06-10T23:08:38.847Z,2.75
2019-06-10T23:11:26.373Z,3.33
2019-06-10T23:14:13.850Z,3.40
2019-06-10T23:17:03.004Z,3.40
2019-06-10T23:19:49.428Z,3.45
2019-06-10T23:22:37.326Z,3.33
2019-06-10T23:25:24.865Z,3.80
2019-06-10T23:28:13.109Z,3.17
2019-06-10T23:31:00.518Z,3.20
2019-06-10T23:33:47.060Z,3.15
2019-06-10T23:36:34.678Z,3.10
2019-06-10T23:39:22.785Z,3.00
2019-06-10T23:42:12.169Z,3.20
2019-06-10T23:44:57.499Z,3.08
2019-06-10T23:47:44.880Z,3.00
2019-06-10T23:50:32.879Z,3.20
2019-06-10T23:53:20.244Z,2.90
2019-06-10T23:56:07.637Z,3.47
2019-06-10T23:58:56.968Z,3.08
